Terminal Aerodrome Forecast
Issued by NWS Sterling, VA

Home | Current Version | Previous Version | Text Only | Print | Product List | Glossary On
Versions: 1 2 3 4 5 6 7 8 9 10 11 12 13 14 15 16 17 18 19 20 21 22
788
FTUS41 KLWX 092344 RRA
TAFBWI
TAF
KBWI 092344Z 1000/1106 29006KT P6SM BKN025
     FM100600 28009KT 2SM -SHSN OVC040
     FM101100 28010KT P6SM BKN035
     FM110500 29014G21KT P6SM BKN090=

USA.gov is the U.S. government's official web portal to all federal, state and local government web resources and services.